Time;durP1;ratioP1;P1;durP2;ratioP2;P2;SDS_P1;SDS_P2;PMS_P1;PMS_P2;Temp;Humidity;BMP_temperature;BMP_pressure;BME280_temperature;BME280_humidity;BME280_pressure;Samples;Min_cycle;Max_cycle;Signal;HPM_P1;HPM_P2
2024/03/05 00:02:25;;;;;;;32.45;17.52;;;10.20;86.50;;;;;;5054939;28;20052;-62
2024/03/05 00:04:50;;;;;;;33.78;18.15;;;10.20;86.50;;;;;;5058028;28;20052;-62
2024/03/05 00:07:16;;;;;;;32.78;17.40;;;10.20;86.50;;;;;;5056924;28;20051;-62
2024/03/05 00:09:42;;;;;;;35.22;18.42;;;10.20;86.50;;;;;;5056079;28;20485;-63
2024/03/05 00:12:08;;;;;;;30.50;17.40;;;10.20;86.50;;;;;;5057578;28;20059;-63
2024/03/05 00:14:33;;;;;;;33.28;17.90;;;10.20;86.60;;;;;;5048994;28;20408;-63
2024/03/05 00:16:59;;;;;;;33.30;18.73;;;10.20;86.60;;;;;;5049089;28;20036;-63
2024/03/05 00:19:25;;;;;;;30.42;17.48;;;10.20;86.60;;;;;;5062667;28;20393;-63
2024/03/05 00:21:51;;;;;;;33.22;18.05;;;10.20;86.60;;;;;;5060580;28;20044;-62
2024/03/05 00:24:16;;;;;;;34.17;19.13;;;10.20;86.60;;;;;;5055142;28;20041;-62
2024/03/05 00:26:42;;;;;;;34.15;18.15;;;10.20;86.60;;;;;;5054074;28;20217;-63
2024/03/05 00:29:08;;;;;;;35.15;19.20;;;10.20;86.60;;;;;;5059799;28;20035;-62
2024/03/05 00:31:34;;;;;;;36.38;19.38;;;10.20;86.60;;;;;;5055391;28;20381;-62
2024/03/05 00:33:59;;;;;;;37.53;20.35;;;10.20;86.60;;;;;;5058400;28;20029;-63
2024/03/05 00:36:25;;;;;;;35.97;20.20;;;10.20;86.60;;;;;;5050633;28;22047;-63
2024/03/05 00:38:51;;;;;;;38.90;19.70;;;10.20;86.60;;;;;;5053117;28;20569;-63
2024/03/05 00:41:18;;;;;;;36.03;19.13;;;10.20;86.60;;;;;;5050490;28;20094;-62
2024/03/05 00:43:44;;;;;;;37.08;19.75;;;10.20;86.60;;;;;;5057200;28;20032;-63
2024/03/05 00:46:09;;;;;;;38.67;20.65;;;10.20;86.60;;;;;;5057975;28;20384;-63
2024/03/05 00:48:35;;;;;;;35.38;20.27;;;10.20;86.60;;;;;;5057859;28;20056;-63
2024/03/05 00:51:00;;;;;;;36.35;19.75;;;10.20;86.60;;;;;;5063855;28;20502;-63
2024/03/05 00:53:26;;;;;;;37.65;20.42;;;10.20;86.50;;;;;;5057904;28;20025;-63
2024/03/05 00:55:52;;;;;;;39.20;20.52;;;10.20;86.50;;;;;;5063590;28;20483;-63
2024/03/05 00:58:17;;;;;;;38.95;21.17;;;10.20;86.50;;;;;;5060271;28;20125;-63
2024/03/05 01:00:43;;;;;;;39.10;21.52;;;10.10;86.50;;;;;;5063572;28;20072;-63
2024/03/05 01:03:10;;;;;;;39.33;21.25;;;10.20;86.70;;;;;;5066709;28;20028;-62
2024/03/05 01:05:36;;;;;;;39.15;20.27;;;10.10;86.70;;;;;;5059209;28;20044;-63
2024/03/05 01:08:02;;;;;;;43.00;21.50;;;10.10;86.70;;;;;;5061345;28;20033;-62
2024/03/05 01:10:28;;;;;;;39.28;20.55;;;10.10;86.80;;;;;;5058317;28;20074;-62
2024/03/05 01:12:55;;;;;;;39.20;21.63;;;10.10;86.90;;;;;;5056830;28;20032;-63
2024/03/05 01:15:20;;;;;;;38.40;20.92;;;10.10;86.90;;;;;;5061234;28;22252;-63
2024/03/05 01:17:46;;;;;;;42.67;22.17;;;10.00;86.80;;;;;;5057095;28;20020;-63
2024/03/05 01:20:15;;;;;;;39.13;21.67;;;10.10;86.90;;;;;;5064985;28;20500;-63
2024/03/05 01:22:42;;;;;;;40.92;21.30;;;10.10;86.90;;;;;;5055326;28;20028;-62
2024/03/05 01:25:08;;;;;;;41.50;21.05;;;10.10;87.00;;;;;;5061699;28;20400;-63
2024/03/05 01:27:34;;;;;;;42.72;21.52;;;10.00;87.00;;;;;;5065439;28;20047;-63
2024/03/05 01:30:00;;;;;;;37.17;20.40;;;10.10;87.00;;;;;;5063015;28;20028;-63
2024/03/05 01:32:28;;;;;;;41.63;22.02;;;10.00;86.90;;;;;;5056724;28;20033;-63
2024/03/05 01:34:55;;;;;;;42.45;22.42;;;10.00;86.90;;;;;;5065228;28;20094;-63
2024/03/05 01:37:23;;;;;;;40.30;20.52;;;10.00;87.00;;;;;;5058195;28;20107;-63
2024/03/05 01:39:49;;;;;;;36.42;20.25;;;10.00;86.90;;;;;;5062655;28;20036;-63
2024/03/05 01:42:14;;;;;;;38.22;20.77;;;10.00;87.10;;;;;;5059127;28;20032;-63
2024/03/05 01:44:40;;;;;;;43.60;21.38;;;10.00;87.10;;;;;;5061189;28;20036;-63
2024/03/05 01:47:05;;;;;;;41.80;20.92;;;10.00;87.10;;;;;;5058444;28;20532;-63
2024/03/05 01:49:32;;;;;;;39.47;20.90;;;10.00;87.10;;;;;;5055700;28;20088;-63
2024/03/05 01:51:58;;;;;;;35.60;19.95;;;10.00;87.10;;;;;;5058911;28;20495;-63
2024/03/05 01:54:28;;;;;;;37.25;20.15;;;10.00;87.10;;;;;;5054562;28;20047;-63
2024/03/05 01:56:57;;;;;;;36.80;19.70;;;10.00;87.20;;;;;;5059519;28;20143;-63
2024/03/05 01:59:23;;;;;;;38.78;20.70;;;10.00;87.10;;;;;;5065326;28;20038;-61
2024/03/05 02:01:50;;;;;;;37.53;19.77;;;10.00;87.20;;;;;;5056363;28;20029;-63
2024/03/05 02:04:17;;;;;;;40.03;21.60;;;10.00;87.20;;;;;;5060350;28;20064;-62
2024/03/05 02:06:44;;;;;;;38.15;20.70;;;10.00;87.20;;;;;;5055286;28;20086;-62
2024/03/05 02:09:12;;;;;;;39.55;21.67;;;10.00;87.20;;;;;;5061352;28;20059;-63
2024/03/05 02:11:40;;;;;;;41.67;21.80;;;10.00;87.30;;;;;;5064442;28;20117;-63
2024/03/05 02:14:07;;;;;;;44.90;22.15;;;10.00;87.30;;;;;;5052116;28;20082;-63
2024/03/05 02:16:33;;;;;;;39.28;20.83;;;10.00;87.30;;;;;;5062615;28;20123;-63
2024/03/05 02:18:59;;;;;;;39.78;21.10;;;10.00;87.30;;;;;;5057287;28;20043;-62
2024/03/05 02:21:25;;;;;;;42.55;21.52;;;10.00;87.30;;;;;;5058536;28;20041;-63
2024/03/05 02:23:50;;;;;;;42.40;21.45;;;10.00;87.30;;;;;;5058352;28;20252;-63
2024/03/05 02:26:20;;;;;;;43.53;23.15;;;10.00;87.40;;;;;;5059552;28;20037;-63
2024/03/05 02:28:48;;;;;;;42.03;21.35;;;10.00;87.40;;;;;;5062394;28;20066;-63
2024/03/05 02:31:14;;;;;;;39.60;21.25;;;10.00;87.40;;;;;;5066605;28;20036;-63
2024/03/05 02:33:42;;;;;;;42.42;22.38;;;10.00;87.40;;;;;;5057943;28;20029;-63
2024/03/05 02:36:08;;;;;;;43.33;22.20;;;10.00;87.40;;;;;;5063493;28;20049;-62
2024/03/05 02:38:34;;;;;;;42.75;21.70;;;10.00;87.50;;;;;;5056739;28;20488;-63
2024/03/05 02:41:00;;;;;;;43.63;22.63;;;10.00;87.50;;;;;;5059364;28;20056;-62
2024/03/05 02:43:26;;;;;;;41.88;22.02;;;10.00;87.60;;;;;;5057304;28;20562;-63
2024/03/05 02:45:51;;;;;;;47.30;22.70;;;10.00;87.60;;;;;;5061030;28;20028;-62
2024/03/05 02:48:17;;;;;;;40.50;21.65;;;10.00;87.60;;;;;;5056214;28;20055;-60
2024/03/05 02:50:43;;;;;;;44.05;22.17;;;10.00;87.60;;;;;;5050421;28;20029;-62
2024/03/05 02:53:09;;;;;;;44.00;22.65;;;10.00;87.60;;;;;;5055903;28;20516;-62
2024/03/05 02:55:38;;;;;;;43.97;22.45;;;10.00;87.60;;;;;;5059061;28;20040;-63
2024/03/05 02:58:06;;;;;;;42.15;22.92;;;10.00;87.60;;;;;;5048526;28;20040;-63
2024/03/05 03:00:32;;;;;;;44.65;22.80;;;10.00;87.70;;;;;;5053296;28;20037;-63
2024/03/05 03:02:58;;;;;;;43.63;22.85;;;10.00;87.70;;;;;;5057192;28;20118;-63
2024/03/05 03:05:24;;;;;;;40.92;21.65;;;10.00;87.80;;;;;;5049901;28;20131;-63
2024/03/05 03:07:51;;;;;;;44.90;23.48;;;10.00;87.80;;;;;;5051229;28;20089;-62
2024/03/05 03:10:16;;;;;;;44.75;23.27;;;10.00;87.70;;;;;;5050417;28;21254;-63
2024/03/05 03:12:42;;;;;;;45.95;24.17;;;10.00;87.60;;;;;;5047489;28;20119;-62
2024/03/05 03:15:08;;;;;;;48.28;24.67;;;10.00;87.60;;;;;;5053307;28;20120;-63
2024/03/05 03:17:35;;;;;;;45.28;23.17;;;10.00;87.60;;;;;;5052323;28;20029;-62
2024/03/05 03:20:03;;;;;;;45.95;23.80;;;9.90;87.60;;;;;;5051226;28;20127;-62
2024/03/05 03:22:28;;;;;;;45.22;24.00;;;9.90;87.80;;;;;;5049692;28;20407;-62
2024/03/05 03:24:54;;;;;;;48.97;23.52;;;9.90;87.80;;;;;;5058146;28;20120;-62
2024/03/05 03:27:20;;;;;;;45.55;22.98;;;9.90;87.90;;;;;;5057264;28;20127;-63
2024/03/05 03:29:45;;;;;;;42.53;22.13;;;10.00;88.00;;;;;;5049487;28;20482;-63
2024/03/05 03:32:11;;;;;;;44.08;22.40;;;9.90;88.00;;;;;;5052548;28;20037;-62
2024/03/05 03:34:40;;;;;;;44.38;22.92;;;9.90;88.00;;;;;;5049453;28;20036;-62
2024/03/05 03:37:09;;;;;;;43.38;22.23;;;9.90;88.00;;;;;;5048851;28;20086;-63
2024/03/05 03:39:35;;;;;;;42.70;21.98;;;9.90;88.00;;;;;;5051709;28;20680;-62
2024/03/05 03:42:00;;;;;;;39.97;21.75;;;9.90;87.90;;;;;;5050878;28;20041;-62
2024/03/05 03:44:26;;;;;;;43.40;22.17;;;9.90;87.90;;;;;;5049204;28;20472;-61
2024/03/05 03:46:52;;;;;;;42.05;22.17;;;9.90;87.90;;;;;;5048881;28;20037;-63
2024/03/05 03:49:23;;;;;;;43.53;22.42;;;9.90;87.90;;;;;;5048101;28;20087;-63
2024/03/05 03:51:49;;;;;;;41.50;22.05;;;9.90;88.00;;;;;;5050264;28;20036;-63
2024/03/05 03:54:15;;;;;;;43.15;22.48;;;9.90;87.90;;;;;;5053035;28;20037;-63
2024/03/05 03:56:40;;;;;;;41.58;22.27;;;9.90;88.00;;;;;;5055705;28;20102;-63
2024/03/05 03:59:06;;;;;;;41.22;21.92;;;9.90;88.00;;;;;;5056649;28;20055;-63
2024/03/05 04:01:34;;;;;;;40.58;20.55;;;9.90;88.00;;;;;;5053929;28;20097;-63
2024/03/05 04:04:00;;;;;;;44.60;22.15;;;9.90;88.10;;;;;;5048622;28;20086;-62
2024/03/05 04:06:26;;;;;;;40.85;21.88;;;9.90;88.10;;;;;;5049317;28;20530;-63
2024/03/05 04:08:52;;;;;;;46.85;23.10;;;9.90;88.10;;;;;;5050040;28;20515;-63
2024/03/05 04:11:17;;;;;;;42.78;22.48;;;9.90;88.10;;;;;;5050331;28;20041;-63
2024/03/05 04:13:43;;;;;;;43.25;21.52;;;9.90;88.10;;;;;;5050578;28;20029;-62
2024/03/05 04:16:09;;;;;;;43.33;22.95;;;9.90;88.10;;;;;;5051072;28;20052;-63
2024/03/05 04:18:35;;;;;;;45.42;23.48;;;9.90;88.10;;;;;;5053354;28;20503;-62
2024/03/05 04:21:01;;;;;;;45.13;23.48;;;9.90;88.10;;;;;;5055087;28;20087;-61
2024/03/05 04:23:30;;;;;;;47.03;22.92;;;9.90;88.10;;;;;;5051925;28;20115;-63
2024/03/05 04:26:01;;;;;;;45.90;23.33;;;9.90;88.20;;;;;;5058306;28;20481;-63
2024/03/05 04:28:35;;;;;;;45.90;22.73;;;9.90;88.10;;;;;;5054872;28;20033;-62
2024/03/05 04:31:08;;;;;;;43.30;21.13;;;9.90;88.10;;;;;;5056218;28;20484;-63
2024/03/05 04:33:36;;;;;;;45.83;23.08;;;10.00;88.20;;;;;;5056324;28;20259;-63
2024/03/05 04:36:06;;;;;;;47.05;23.23;;;10.00;88.20;;;;;;5060735;28;20043;-62
2024/03/05 04:38:32;;;;;;;45.88;23.35;;;9.90;88.10;;;;;;5055704;28;20041;-63
2024/03/05 04:40:57;;;;;;;44.60;24.08;;;9.90;88.10;;;;;;5052612;28;21190;-63
2024/03/05 04:43:23;;;;;;;43.33;24.15;;;10.00;88.10;;;;;;5051184;28;20037;-63
2024/03/05 04:45:48;;;;;;;47.65;23.83;;;9.90;88.00;;;;;;5052373;28;20431;-63
2024/03/05 04:48:14;;;;;;;46.00;23.63;;;10.00;88.10;;;;;;5054058;28;20037;-63
2024/03/05 04:50:40;;;;;;;45.65;23.23;;;10.00;88.10;;;;;;5052796;28;20052;-63
2024/03/05 04:53:05;;;;;;;49.00;24.38;;;9.90;88.10;;;;;;5058630;28;20543;-63
2024/03/05 04:55:31;;;;;;;43.85;22.90;;;9.90;88.10;;;;;;5056293;28;20033;-63
2024/03/05 04:57:57;;;;;;;42.63;21.52;;;10.00;88.30;;;;;;5052996;28;20047;-61
2024/03/05 05:00:23;;;;;;;42.50;22.67;;;9.90;88.20;;;;;;5055301;28;20033;-62
2024/03/05 05:02:52;;;;;;;48.80;23.73;;;10.00;88.30;;;;;;5058223;28;20036;-63
2024/03/05 05:05:18;;;;;;;45.55;23.63;;;10.00;88.40;;;;;;5050867;28;20628;-62
2024/03/05 05:07:45;;;;;;;48.25;24.35;;;10.00;88.30;;;;;;5053848;28;20124;-61
2024/03/05 05:10:10;;;;;;;48.25;24.77;;;9.90;88.10;;;;;;5054468;28;20082;-63
2024/03/05 05:12:40;;;;;;;48.40;24.38;;;9.90;88.20;;;;;;5059290;28;20112;-62
2024/03/05 05:15:08;;;;;;;48.45;24.83;;;9.90;88.30;;;;;;5067594;28;20028;-63
2024/03/05 05:17:34;;;;;;;48.15;24.15;;;9.90;88.50;;;;;;5061058;28;20328;-62
2024/03/05 05:20:01;;;;;;;54.08;25.60;;;9.90;89.30;;;;;;5062619;28;20024;-63
2024/03/05 05:22:27;;;;;;;48.85;24.08;;;9.80;88.50;;;;;;5058356;28;20043;-63
2024/03/05 05:24:52;;;;;;;49.38;24.20;;;9.80;88.60;;;;;;5057403;28;20032;-61
2024/03/05 05:27:18;;;;;;;46.95;23.60;;;9.90;88.80;;;;;;5060010;28;20040;-61
2024/03/05 05:29:44;;;;;;;46.53;24.45;;;9.80;88.80;;;;;;5067190;28;20016;-62
2024/03/05 05:32:09;;;;;;;47.38;23.27;;;9.90;88.90;;;;;;5067905;28;20511;-63
2024/03/05 05:34:35;;;;;;;48.97;23.60;;;9.80;88.80;;;;;;5060517;28;20029;-61
2024/03/05 05:37:01;;;;;;;49.83;24.58;;;9.90;88.90;;;;;;5067129;28;20058;-63
2024/03/05 05:39:27;;;;;;;46.20;23.48;;;9.80;88.80;;;;;;5060967;28;20029;-63
2024/03/05 05:41:54;;;;;;;50.90;25.23;;;9.90;88.80;;;;;;5058697;28;20060;-63
2024/03/05 05:44:20;;;;;;;44.25;23.23;;;9.90;88.90;;;;;;5068679;28;20050;-62
2024/03/05 05:46:45;;;;;;;43.03;22.40;;;9.90;88.80;;;;;;5065059;28;20021;-63
2024/03/05 05:49:19;;;;;;;43.83;21.27;;;9.90;88.70;;;;;;5061514;28;20507;-60
2024/03/05 05:51:46;;;;;;;41.83;21.85;;;9.80;88.80;;;;;;5066136;28;20037;-62
2024/03/05 05:54:11;;;;;;;43.17;21.13;;;9.80;89.00;;;;;;5061427;28;20040;-61
2024/03/05 05:56:38;;;;;;;42.72;22.52;;;9.80;89.20;;;;;;5060464;28;20365;-61
2024/03/05 05:59:05;;;;;;;47.53;22.65;;;9.70;89.20;;;;;;5060998;28;20044;-61
2024/03/05 06:01:33;;;;;;;48.05;23.55;;;9.70;89.20;;;;;;5061129;28;20029;-61
2024/03/05 06:03:59;;;;;;;46.65;23.70;;;9.70;89.20;;;;;;5063669;28;20044;-62
2024/03/05 06:06:25;;;;;;;43.33;23.02;;;9.70;89.50;;;;;;5054262;28;20148;-62
2024/03/05 06:08:51;;;;;;;47.03;23.27;;;9.70;89.70;;;;;;5057882;28;20115;-63
2024/03/05 06:11:16;;;;;;;49.58;24.08;;;9.60;89.70;;;;;;5065142;28;20028;-61
2024/03/05 06:13:43;;;;;;;47.60;25.02;;;9.60;89.60;;;;;;5061335;28;20079;-63
2024/03/05 06:16:09;;;;;;;52.53;25.35;;;9.60;89.50;;;;;;5068271;28;20043;-62
2024/03/05 06:18:36;;;;;;;51.70;26.75;;;9.60;89.50;;;;;;5054028;28;20044;-63
2024/03/05 06:21:04;;;;;;;52.42;25.92;;;9.50;89.60;;;;;;5055607;28;20041;-63
2024/03/05 06:23:29;;;;;;;49.33;24.90;;;9.50;89.80;;;;;;5064029;28;20109;-63
2024/03/05 06:25:55;;;;;;;50.65;25.85;;;9.50;89.90;;;;;;5064724;28;20033;-64
2024/03/05 06:28:21;;;;;;;52.50;25.02;;;9.50;90.00;;;;;;5057167;28;20040;-64
2024/03/05 06:30:49;;;;;;;47.80;24.75;;;9.50;90.00;;;;;;5058071;28;20029;-63
2024/03/05 06:33:17;;;;;;;55.20;24.58;;;9.60;90.10;;;;;;5060393;28;20037;-63
2024/03/05 06:35:43;;;;;;;49.85;24.98;;;9.50;90.00;;;;;;5061061;28;20125;-63
2024/03/05 06:38:09;;;;;;;47.33;24.35;;;9.50;90.00;;;;;;5062184;28;20120;-63
2024/03/05 06:40:36;;;;;;;52.67;25.15;;;9.50;90.00;;;;;;5066631;28;20029;-64
2024/03/05 06:43:05;;;;;;;46.20;23.10;;;9.60;90.00;;;;;;5063992;28;20525;-63
2024/03/05 06:45:34;;;;;;;48.47;24.75;;;9.60;90.00;;;;;;5056359;28;20405;-61
2024/03/05 06:48:07;;;;;;;48.13;24.10;;;9.60;90.00;;;;;;5061336;28;20044;-63
2024/03/05 06:50:34;;;;;;;48.35;22.77;;;9.60;90.00;;;;;;5052577;28;20059;-63
2024/03/05 06:58:33;;;;;;;41.23;22.00;;;9.50;90.00;;;;;;5059679;28;20412;-63
2024/03/05 07:00:59;;;;;;;40.28;20.63;;;9.50;90.00;;;;;;5056480;28;20067;-63
2024/03/05 07:03:25;;;;;;;40.20;21.55;;;9.50;90.10;;;;;;5062238;28;20040;-63
2024/03/05 07:05:51;;;;;;;40.60;21.00;;;9.40;90.10;;;;;;5061171;28;20115;-63
2024/03/05 07:08:16;;;;;;;36.70;20.48;;;9.40;90.10;;;;;;5063298;28;20122;-63
2024/03/05 07:10:43;;;;;;;39.20;20.60;;;9.40;90.20;;;;;;5061545;28;20076;-64
2024/03/05 07:13:09;;;;;;;34.58;20.00;;;9.30;90.30;;;;;;5061318;28;20059;-63
2024/03/05 07:15:35;;;;;;;36.30;20.42;;;9.30;90.30;;;;;;5061984;28;20074;-63
2024/03/05 07:18:02;;;;;;;34.95;19.85;;;9.30;90.40;;;;;;5058380;28;20036;-63
2024/03/05 07:20:27;;;;;;;32.30;18.73;;;9.30;90.40;;;;;;5059505;28;20048;-63
2024/03/05 07:22:54;;;;;;;30.85;17.85;;;9.30;90.40;;;;;;5059157;28;20037;-62
2024/03/05 07:25:22;;;;;;;30.42;17.60;;;9.30;90.40;;;;;;5064843;28;20037;-63
2024/03/05 07:27:48;;;;;;;27.85;16.83;;;9.30;90.40;;;;;;5062846;28;20086;-63
2024/03/05 07:30:15;;;;;;;26.65;16.38;;;9.30;90.40;;;;;;5054656;28;20037;-64
2024/03/05 07:32:45;;;;;;;25.73;16.77;;;9.30;90.40;;;;;;5061065;28;20123;-64
2024/03/05 07:35:15;;;;;;;30.67;18.33;;;9.30;90.50;;;;;;5062340;28;20035;-63
2024/03/05 07:37:45;;;;;;;26.35;17.60;;;9.30;90.60;;;;;;5057007;28;20066;-62
2024/03/05 07:40:17;;;;;;;30.63;18.27;;;9.30;90.60;;;;;;5065669;28;20056;-62
2024/03/05 07:42:47;;;;;;;28.42;17.77;;;9.30;90.70;;;;;;5054296;28;20037;-64
2024/03/05 07:45:13;;;;;;;30.60;18.38;;;9.30;90.70;;;;;;5056006;28;20133;-63
2024/03/05 07:47:39;;;;;;;29.90;18.30;;;9.30;90.70;;;;;;5062973;28;20040;-62
2024/03/05 07:50:07;;;;;;;28.23;17.42;;;9.30;90.70;;;;;;5057743;28;20029;-64
2024/03/05 07:52:32;;;;;;;26.83;17.42;;;9.30;90.60;;;;;;5072385;28;20029;-63
2024/03/05 07:54:58;;;;;;;28.00;17.48;;;9.30;90.70;;;;;;5071108;28;20400;-63
2024/03/05 07:57:24;;;;;;;26.92;17.77;;;9.30;91.10;;;;;;5067271;28;20028;-63
2024/03/05 07:59:50;;;;;;;26.80;17.70;;;9.40;90.80;;;;;;5074689;28;20123;-63
2024/03/05 08:02:16;;;;;;;29.60;18.88;;;9.40;90.80;;;;;;5064055;28;20025;-62
2024/03/05 08:04:42;;;;;;;25.50;17.40;;;9.40;90.80;;;;;;5070244;28;20518;-63
2024/03/05 08:07:07;;;;;;;27.70;17.95;;;9.40;90.80;;;;;;5069862;28;20583;-63
2024/03/05 08:09:36;;;;;;;26.73;17.67;;;9.50;90.80;;;;;;5065324;28;20401;-63
2024/03/05 08:12:03;;;;;;;30.52;18.20;;;9.50;90.80;;;;;;5069970;28;20451;-64
2024/03/05 08:14:30;;;;;;;29.85;18.50;;;9.60;90.80;;;;;;5062499;28;20050;-64
2024/03/05 08:16:55;;;;;;;27.35;17.88;;;9.60;90.70;;;;;;5070596;28;20021;-64
2024/03/05 08:19:21;;;;;;;27.23;17.63;;;9.60;90.70;;;;;;5068896;28;20035;-62
2024/03/05 08:21:46;;;;;;;29.73;18.75;;;9.70;90.70;;;;;;5064969;28;20056;-64
2024/03/05 08:24:12;;;;;;;25.20;17.38;;;9.70;90.60;;;;;;5066294;28;20400;-63
2024/03/05 08:26:38;;;;;;;28.98;17.50;;;9.70;90.50;;;;;;5061528;28;20420;-64
2024/03/05 08:29:03;;;;;;;27.35;17.95;;;9.80;90.50;;;;;;5072195;28;20033;-64
2024/03/05 08:31:29;;;;;;;29.77;18.42;;;9.80;90.50;;;;;;5068579;28;20036;-64
2024/03/05 08:33:55;;;;;;;29.38;18.98;;;9.80;90.40;;;;;;5067666;28;20028;-64
2024/03/05 08:36:22;;;;;;;28.55;18.02;;;9.90;90.40;;;;;;5069641;28;20036;-63
2024/03/05 08:38:47;;;;;;;30.30;19.27;;;9.90;90.80;;;;;;5064127;28;20112;-64
2024/03/05 08:41:16;;;;;;;28.40;18.52;;;9.90;90.30;;;;;;5069246;28;20166;-63
2024/03/05 08:43:42;;;;;;;29.33;18.67;;;9.90;90.20;;;;;;5070115;28;20411;-63
2024/03/05 08:46:08;;;;;;;28.48;18.30;;;10.00;90.20;;;;;;5062040;28;20024;-64
2024/03/05 08:48:33;;;;;;;28.92;17.92;;;9.90;90.10;;;;;;5068845;28;20514;-64
2024/03/05 08:50:59;;;;;;;27.50;17.90;;;10.00;90.10;;;;;;5069845;28;20028;-64
2024/03/05 08:53:25;;;;;;;29.27;18.40;;;10.00;90.10;;;;;;5064422;28;20039;-62
2024/03/05 08:55:52;;;;;;;29.63;18.27;;;10.00;90.10;;;;;;5063800;28;20032;-63
2024/03/05 08:58:18;;;;;;;31.42;18.27;;;10.00;90.00;;;;;;5060017;28;20408;-62
2024/03/05 09:00:44;;;;;;;28.00;18.05;;;10.00;90.10;;;;;;5064762;28;21736;-62
2024/03/05 09:03:11;;;;;;;27.23;17.45;;;10.10;90.20;;;;;;5064625;28;20123;-64
2024/03/05 09:05:37;;;;;;;29.63;18.13;;;10.10;90.00;;;;;;5063318;28;20048;-64
2024/03/05 09:08:04;;;;;;;26.25;17.52;;;10.10;90.00;;;;;;5062282;28;20033;-64
2024/03/05 09:10:31;;;;;;;27.83;16.88;;;10.10;89.90;;;;;;5054051;28;20067;-64
2024/03/05 09:12:58;;;;;;;26.65;17.63;;;10.10;89.90;;;;;;5066638;28;20523;-63
2024/03/05 09:15:25;;;;;;;27.20;17.02;;;10.10;90.00;;;;;;5059111;28;20036;-64
2024/03/05 09:17:51;;;;;;;25.58;16.92;;;10.10;90.00;;;;;;5052718;28;20455;-64
2024/03/05 09:20:17;;;;;;;26.15;16.92;;;10.10;90.00;;;;;;5061632;28;20123;-63
2024/03/05 09:22:44;;;;;;;26.08;17.05;;;10.10;90.00;;;;;;5068169;28;20449;-64
2024/03/05 09:25:14;;;;;;;28.65;18.65;;;10.10;90.00;;;;;;5054609;28;20040;-63
2024/03/05 09:27:42;;;;;;;27.95;18.05;;;10.20;89.90;;;;;;5065240;28;20517;-63
2024/03/05 09:30:08;;;;;;;26.25;17.50;;;10.20;89.80;;;;;;5057797;28;20450;-64
2024/03/05 09:32:37;;;;;;;28.17;18.30;;;10.20;89.70;;;;;;5063889;28;20025;-63
2024/03/05 09:35:08;;;;;;;26.17;17.25;;;10.20;89.70;;;;;;5070801;28;20104;-63
2024/03/05 09:37:34;;;;;;;25.80;16.73;;;10.20;89.50;;;;;;5054477;28;20033;-63
2024/03/05 09:39:59;;;;;;;27.60;16.67;;;10.30;89.30;;;;;;5061127;28;21423;-64
2024/03/05 09:42:26;;;;;;;28.00;16.60;;;10.30;89.20;;;;;;5061606;28;20052;-63
2024/03/05 09:44:52;;;;;;;23.85;15.52;;;10.30;89.20;;;;;;5060711;28;20048;-63
2024/03/05 09:47:19;;;;;;;23.50;15.35;;;10.30;89.00;;;;;;5060363;28;20033;-63
2024/03/05 09:49:47;;;;;;;24.90;16.13;;;10.40;89.10;;;;;;5058143;28;20116;-64
2024/03/05 09:52:13;;;;;;;24.02;16.23;;;10.40;88.90;;;;;;5061717;28;20036;-61
2024/03/05 09:54:41;;;;;;;24.33;15.68;;;10.40;88.70;;;;;;5055219;28;20123;-63
2024/03/05 09:57:07;;;;;;;24.02;14.88;;;10.40;88.60;;;;;;5066770;28;20090;-63
2024/03/05 09:59:38;;;;;;;23.80;15.55;;;10.50;88.40;;;;;;5064557;28;20320;-64
2024/03/05 10:02:08;;;;;;;24.80;15.65;;;10.50;88.00;;;;;;5063619;28;20407;-64
2024/03/05 10:04:40;;;;;;;24.63;15.57;;;10.50;88.00;;;;;;5058555;28;20040;-64
2024/03/05 10:07:07;;;;;;;26.88;16.15;;;10.50;88.00;;;;;;5065552;28;20028;-64
2024/03/05 10:09:34;;;;;;;26.35;16.77;;;10.50;87.70;;;;;;5059953;28;20094;-63
2024/03/05 10:12:02;;;;;;;28.95;17.35;;;10.40;87.50;;;;;;5066539;28;20384;-64
2024/03/05 10:14:27;;;;;;;27.98;16.50;;;10.40;87.50;;;;;;5056651;28;20025;-63
2024/03/05 10:17:02;;;;;;;24.63;16.45;;;10.40;87.60;;;;;;5059619;28;20028;-63
2024/03/05 10:19:28;;;;;;;24.98;16.33;;;10.30;87.60;;;;;;5069261;28;20029;-64
2024/03/05 10:22:07;;;;;;;26.23;16.73;;;10.30;87.80;;;;;;5064363;28;20421;-64
2024/03/05 10:24:34;;;;;;;24.70;15.70;;;10.20;88.00;;;;;;5065804;28;20488;-64
2024/03/05 10:27:00;;;;;;;22.25;15.32;;;10.30;88.20;;;;;;5060289;28;20041;-63
2024/03/05 10:29:34;;;;;;;24.90;15.70;;;10.20;88.30;;;;;;5058429;28;20033;-63
2024/03/05 10:32:04;;;;;;;24.17;15.45;;;10.30;88.30;;;;;;5061424;28;20029;-63
2024/03/05 10:34:30;;;;;;;22.80;14.70;;;10.30;88.40;;;;;;5062157;28;20546;-64
2024/03/05 10:37:04;;;;;;;21.40;14.68;;;10.30;88.40;;;;;;5059296;28;20032;-63
2024/03/05 10:39:30;;;;;;;20.55;14.55;;;10.30;88.10;;;;;;5061492;28;20378;-63
2024/03/05 10:41:59;;;;;;;23.35;14.95;;;10.40;88.10;;;;;;5064914;28;20035;-63
2024/03/05 10:44:26;;;;;;;21.73;14.15;;;10.40;88.00;;;;;;5061167;28;20036;-64
2024/03/05 10:46:54;;;;;;;21.73;14.93;;;10.40;87.90;;;;;;5063293;28;20147;-64
2024/03/05 10:49:21;;;;;;;22.38;14.70;;;10.40;87.70;;;;;;5059810;28;20048;-64
2024/03/05 10:51:48;;;;;;;23.75;15.63;;;10.40;87.60;;;;;;5068401;28;20033;-63
2024/03/05 10:54:14;;;;;;;22.02;14.77;;;10.50;87.50;;;;;;5061538;28;20456;-63
2024/03/05 10:56:39;;;;;;;22.35;14.43;;;10.40;87.30;;;;;;5069636;28;20116;-63
2024/03/05 11:01:42;;;;;;;22.27;13.98;;;10.50;87.40;;;;;;5059972;28;20037;-64
2024/03/05 11:04:30;;;;;;;25.52;14.20;;;10.50;87.40;;;;;;5069039;28;20115;-64
2024/03/05 11:06:57;;;;;;;20.25;13.02;;;10.60;86.70;;;;;;5063351;28;20566;-64
2024/03/05 11:09:24;;;;;;;20.58;13.63;;;10.60;86.90;;;;;;5066310;28;20072;-64
2024/03/05 11:11:59;;;;;;;21.98;13.77;;;10.70;86.90;;;;;;5065333;28;20041;-63
2024/03/05 11:14:25;;;;;;;20.77;13.15;;;10.70;86.40;;;;;;5059659;28;20025;-64
2024/03/05 11:17:04;;;;;;;17.88;13.02;;;10.70;86.20;;;;;;5061607;28;20037;-64
2024/03/05 11:19:31;;;;;;;20.77;13.38;;;10.60;85.70;;;;;;5057892;28;20040;-63
2024/03/05 11:21:58;;;;;;;20.92;13.82;;;10.70;86.00;;;;;;5058050;28;20086;-64
2024/03/05 11:24:24;;;;;;;21.15;13.25;;;10.60;86.00;;;;;;5067923;28;20060;-63
2024/03/05 11:27:01;;;;;;;16.55;12.05;;;10.60;86.00;;;;;;5063129;28;20625;-63
2024/03/05 11:29:30;;;;;;;22.38;13.02;;;10.60;85.80;;;;;;5059471;28;20040;-64
2024/03/05 11:31:58;;;;;;;18.40;12.38;;;10.50;86.00;;;;;;5067929;28;20139;-63
2024/03/05 11:34:27;;;;;;;17.33;11.60;;;10.50;86.00;;;;;;5059680;28;20380;-64
2024/03/05 11:37:15;;;;;;;15.00;11.02;;;10.50;86.20;;;;;;5064728;28;20082;-63
2024/03/05 11:39:42;;;;;;;14.10;10.30;;;10.50;85.50;;;;;;5060367;28;20399;-64
2024/03/05 11:42:18;;;;;;;15.15;10.60;;;10.60;86.00;;;;;;5053925;28;20112;-64
2024/03/05 11:44:44;;;;;;;14.85;10.25;;;10.60;85.50;;;;;;5055935;28;20124;-60
2024/03/05 11:47:09;;;;;;;17.95;11.15;;;10.60;85.70;;;;;;5056207;28;20187;-64
2024/03/05 11:49:36;;;;;;;13.15;10.02;;;10.70;85.50;;;;;;5056556;28;20510;-63
2024/03/05 11:52:03;;;;;;;14.70;10.18;;;10.70;85.00;;;;;;5060356;28;20025;-64
2024/03/05 11:54:32;;;;;;;15.98;10.18;;;10.70;84.70;;;;;;5060773;28;20028;-64
2024/03/05 11:56:58;;;;;;;14.32;10.13;;;10.70;84.60;;;;;;5059455;28;20174;-64
2024/03/05 11:59:33;;;;;;;16.55;10.30;;;10.70;84.50;;;;;;5071659;28;20035;-64
2024/03/05 12:01:59;;;;;;;13.43;10.02;;;10.70;84.30;;;;;;5056896;28;20055;-63
2024/03/05 12:04:26;;;;;;;15.57;10.38;;;10.70;84.50;;;;;;5059012;28;20500;-64
2024/03/05 12:07:02;;;;;;;14.25;10.15;;;10.70;83.80;;;;;;5062130;28;20511;-64
2024/03/05 12:09:27;;;;;;;15.48;10.30;;;10.70;83.30;;;;;;5061300;28;20401;-64
2024/03/05 12:12:09;;;;;;;13.57;9.50;;;10.70;83.40;;;;;;5071501;28;20048;-63
2024/03/05 12:14:55;;;;;;;8.82;7.05;;;10.70;82.90;;;;;;5062216;28;20040;-64
2024/03/05 12:17:23;;;;;;;5.20;4.25;;;10.70;81.90;;;;;;5060666;28;20037;-63
2024/03/05 12:20:04;;;;;;;4.90;4.03;;;10.60;81.40;;;;;;5071096;28;20040;-63
2024/03/05 12:22:30;;;;;;;6.50;4.10;;;10.60;81.30;;;;;;5058467;28;20033;-64
2024/03/05 12:24:56;;;;;;;3.97;3.50;;;10.50;81.70;;;;;;5068200;28;20032;-64
2024/03/05 12:27:21;;;;;;;4.05;3.17;;;10.40;81.70;;;;;;5060886;28;20381;-64
2024/03/05 12:29:49;;;;;;;3.20;2.40;;;10.20;81.70;;;;;;5054469;28;20558;-64
2024/03/05 12:32:18;;;;;;;2.90;2.40;;;10.10;81.80;;;;;;5064272;28;20033;-64
2024/03/05 12:34:43;;;;;;;2.30;2.10;;;9.90;81.90;;;;;;5058157;28;20113;-63
2024/03/05 12:37:13;;;;;;;2.13;1.92;;;9.80;82.10;;;;;;5067811;28;20458;-64
2024/03/05 12:39:42;;;;;;;2.08;1.92;;;9.70;82.30;;;;;;5068277;28;20120;-64